createdAt,value
2023-01-12T00:02:36.574Z,4.58
2023-01-12T00:07:38.305Z,4.56
2023-01-12T00:12:46.662Z,4.57
2023-01-12T00:17:48.325Z,4.55
2023-01-12T00:22:49.989Z,4.54
2023-01-12T00:27:51.712Z,4.56
2023-01-12T00:32:53.405Z,4.59
2023-01-12T00:37:55.103Z,4.61
2023-01-12T00:43:15.235Z,4.62
2023-01-12T00:48:22.919Z,4.67
2023-01-12T00:53:24.618Z,4.73
2023-01-12T00:58:28.526Z,4.77
2023-01-12T01:03:30.360Z,4.80
2023-01-12T01:08:32.385Z,4.83
2023-01-12T01:13:36.508Z,4.86
2023-01-12T01:18:38.366Z,4.86
2023-01-12T01:23:41.909Z,4.88
2023-01-12T01:28:44.077Z,4.89
2023-01-12T01:33:46.695Z,4.91
2023-01-12T01:38:50.375Z,4.89
2023-01-12T01:43:53.854Z,4.84
2023-01-12T01:48:56.835Z,4.81
2023-01-12T01:53:59.997Z,4.81
2023-01-12T01:59:11.214Z,4.84
2023-01-12T02:04:14.077Z,4.83
2023-01-12T02:09:24.469Z,4.83
2023-01-12T02:14:45.133Z,4.86
2023-01-12T02:20:22.591Z,4.88
2023-01-12T02:25:43.032Z,4.89
2023-01-12T02:31:23.072Z,4.91
2023-01-12T02:36:47.088Z,4.92
2023-01-12T02:42:39.106Z,4.93
2023-01-12T02:47:56.294Z,4.89
2023-01-12T02:53:04.765Z,4.88
2023-01-12T02:58:09.836Z,4.91
2023-01-12T03:03:12.277Z,4.91
2023-01-12T03:08:17.766Z,4.94
2023-01-12T03:13:21.407Z,4.99
2023-01-12T03:18:48.562Z,5.01
2023-01-12T03:24:00.130Z,5.01
2023-01-12T03:29:15.612Z,4.95
2023-01-12T03:34:17.465Z,4.91
2023-01-12T03:39:37.516Z,4.96
2023-01-12T03:44:52.268Z,4.99
2023-01-12T03:49:58.579Z,4.97
2023-01-12T03:55:03.572Z,4.92
2023-01-12T04:00:12.024Z,4.81
2023-01-12T04:05:16.596Z,4.68
2023-01-12T04:10:18.427Z,4.55
2023-01-12T04:15:20.169Z,4.35
2023-01-12T04:20:21.899Z,4.39
2023-01-12T04:25:24.630Z,4.36
2023-01-12T04:30:28.224Z,4.31
2023-01-12T04:35:29.953Z,4.27
2023-01-12T04:40:31.560Z,4.23
2023-01-12T04:45:39.828Z,4.21
2023-01-12T04:50:44.288Z,4.19
2023-01-12T04:55:45.831Z,4.19
2023-01-12T05:00:47.477Z,4.19
2023-01-12T05:05:49.113Z,4.19
2023-01-12T05:10:56.014Z,4.19
2023-01-12T05:16:06.762Z,4.17
2023-01-12T05:21:08.401Z,4.15
2023-01-12T05:26:10.932Z,4.10
2023-01-12T05:31:13.884Z,4.11
2023-01-12T05:36:16.942Z,4.10
2023-01-12T05:41:18.686Z,4.08
2023-01-12T05:46:26.063Z,4.05
2023-01-12T05:51:30.743Z,4.01
2023-01-12T05:56:33.997Z,3.96
2023-01-12T06:01:36.342Z,3.89
2023-01-12T06:06:38.017Z,3.83
2023-01-12T06:11:58.379Z,3.79
2023-01-12T06:17:00.219Z,3.77
2023-01-12T06:22:02.087Z,3.72
2023-01-12T06:27:04.250Z,3.70
2023-01-12T06:32:05.909Z,3.69
2023-01-12T06:37:08.493Z,3.69
2023-01-12T06:42:28.478Z,3.62
2023-01-12T06:47:31.497Z,3.53
2023-01-12T06:52:33.395Z,3.47
2023-01-12T06:57:35.172Z,3.38
2023-01-12T07:02:36.831Z,3.29
2023-01-12T07:07:40.212Z,3.22
2023-01-12T07:12:42.345Z,3.21
2023-01-12T07:17:44.091Z,3.22
2023-01-12T07:22:45.814Z,3.20
2023-01-12T07:27:58.136Z,3.22
2023-01-12T07:33:08.596Z,3.31
2023-01-12T07:38:10.693Z,3.40
2023-01-12T07:43:14.841Z,3.52
2023-01-12T07:48:16.510Z,3.67
2023-01-12T07:53:19.440Z,3.87
2023-01-12T07:58:21.140Z,4.12
2023-01-12T08:03:22.831Z,4.37
2023-01-12T08:08:24.539Z,4.64
2023-01-12T08:13:26.207Z,4.86
2023-01-12T08:18:32.891Z,5.02
2023-01-12T08:23:41.690Z,5.13
2023-01-12T08:28:48.575Z,5.26
2023-01-12T08:33:53.469Z,5.28
2023-01-12T08:38:56.771Z,5.18
2023-01-12T08:44:02.435Z,5.04
2023-01-12T08:49:09.365Z,4.96
2023-01-12T08:54:12.656Z,4.89
2023-01-12T08:59:14.371Z,4.86
2023-01-12T09:04:16.675Z,4.90
2023-01-12T09:09:20.092Z,4.98
2023-01-12T09:14:21.820Z,5.12
2023-01-12T09:19:23.667Z,5.22
2023-01-12T09:24:25.369Z,5.32
2023-01-12T09:29:27.137Z,5.42
2023-01-12T09:34:29.027Z,5.52
2023-01-12T09:39:31.036Z,5.60
2023-01-12T09:44:57.998Z,5.66
2023-01-12T09:50:08.891Z,5.73
2023-01-12T09:55:18.113Z,5.81
2023-01-12T10:00:20.771Z,5.88
2023-01-12T10:05:39.621Z,5.96
2023-01-12T10:11:06.608Z,6.02
2023-01-12T10:16:18.605Z,6.11
2023-01-12T10:21:23.648Z,6.21
2023-01-12T10:26:32.193Z,6.31
2023-01-12T10:31:34.009Z,6.44
2023-01-12T10:36:42.572Z,6.53
2023-01-12T10:41:44.413Z,6.47
2023-01-12T10:47:10.031Z,6.66
2023-01-12T10:52:35.143Z,6.72
2023-01-12T10:57:36.845Z,6.85
2023-01-12T11:02:43.689Z,6.95
2023-01-12T11:07:49.783Z,7.01
2023-01-12T11:13:01.056Z,7.05
2023-01-12T11:18:10.382Z,7.14
2023-01-12T11:23:36.263Z,7.20
2023-01-12T11:29:02.730Z,7.24
2023-01-12T11:34:21.711Z,7.29
2023-01-12T11:39:25.509Z,7.37
2023-01-12T11:44:34.475Z,7.44
2023-01-12T11:49:52.751Z,7.51
2023-01-12T11:54:55.227Z,7.54
2023-01-12T12:00:53.634Z,7.58
2023-01-12T12:06:10.071Z,7.65
2023-01-12T12:11:34.523Z,7.69
2023-01-12T12:16:48.692Z,7.72
2023-01-12T12:22:27.241Z,7.75
2023-01-12T12:27:59.951Z,7.81
2023-01-12T12:33:11.561Z,7.86
2023-01-12T12:38:46.330Z,7.90
2023-01-12T12:44:32.352Z,7.90
2023-01-12T12:49:44.399Z,7.90
2023-01-12T12:54:51.409Z,7.88
2023-01-12T12:59:53.198Z,7.94
2023-01-12T13:04:55.644Z,7.97
2023-01-12T13:10:22.204Z,7.94
2023-01-12T13:15:29.311Z,7.92
2023-01-12T13:20:48.645Z,7.90
2023-01-12T13:25:56.497Z,7.91
2023-01-12T13:31:00.180Z,7.97
2023-01-12T13:36:10.286Z,8.01
2023-01-12T13:41:35.178Z,7.98
2023-01-12T13:46:44.515Z,7.84
2023-01-12T13:51:55.527Z,7.66
2023-01-12T13:57:04.112Z,7.49
2023-01-12T14:02:18.066Z,7.39
2023-01-12T14:07:31.346Z,7.26
2023-01-12T14:13:05.101Z,7.11
2023-01-12T14:18:13.349Z,6.95
2023-01-12T14:23:27.385Z,6.81
2023-01-12T14:28:29.916Z,6.73
2023-01-12T14:33:34.330Z,6.69
2023-01-12T14:38:40.579Z,6.65
2023-01-12T14:44:02.625Z,6.56
2023-01-12T14:49:17.885Z,6.44
2023-01-12T14:54:24.190Z,6.31
2023-01-12T14:59:30.779Z,6.18
2023-01-12T15:04:32.539Z,6.10
2023-01-12T15:09:50.480Z,6.07
2023-01-12T15:14:52.293Z,6.06
2023-01-12T15:20:12.440Z,6.02
2023-01-12T15:25:35.912Z,5.94
2023-01-12T15:30:38.672Z,5.86
2023-01-12T15:35:45.996Z,5.87
2023-01-12T15:40:48.570Z,5.93
2023-01-12T15:45:51.420Z,6.00
2023-01-12T15:50:53.196Z,6.01
2023-01-12T15:55:54.911Z,5.98
2023-01-12T16:00:57.067Z,5.93
2023-01-12T16:05:58.804Z,5.93
2023-01-12T16:11:09.302Z,5.95
2023-01-12T16:16:16.040Z,5.96
2023-01-12T16:21:22.480Z,5.99
2023-01-12T16:26:25.606Z,6.00
2023-01-12T16:31:27.852Z,5.98
2023-01-12T16:36:29.793Z,5.97
2023-01-12T16:41:31.434Z,5.95
2023-01-12T16:46:33.275Z,5.88
2023-01-12T16:51:35.056Z,5.78
2023-01-12T16:56:36.895Z,5.68
2023-01-12T17:01:38.692Z,5.68
2023-01-12T17:06:41.543Z,5.70
2023-01-12T17:11:43.857Z,5.73
2023-01-12T17:16:45.701Z,5.72
2023-01-12T17:21:49.807Z,5.72
2023-01-12T17:26:53.748Z,5.74
2023-01-12T17:31:58.690Z,5.74
2023-01-12T17:37:08.138Z,5.71
2023-01-12T17:42:31.282Z,5.64
2023-01-12T17:47:33.002Z,5.41
2023-01-12T17:52:34.713Z,5.49
2023-01-12T17:57:36.751Z,5.48
2023-01-12T18:02:38.533Z,5.48
2023-01-12T18:07:42.008Z,5.46
2023-01-12T18:12:43.871Z,5.40
2023-01-12T18:17:45.573Z,5.30
2023-01-12T18:22:47.437Z,5.21
2023-01-12T18:27:49.188Z,5.10
2023-01-12T18:32:50.908Z,5.14
2023-01-12T18:37:52.899Z,5.13
2023-01-12T18:42:55.635Z,5.09
2023-01-12T18:48:16.103Z,5.05
2023-01-12T18:53:25.505Z,5.06
2023-01-12T18:58:31.050Z,5.10
2023-01-12T19:03:34.345Z,5.12
2023-01-12T19:08:54.951Z,5.12
2023-01-12T19:14:15.471Z,5.14
2023-01-12T19:19:18.566Z,5.25
2023-01-12T19:24:39.394Z,5.31
2023-01-12T19:29:43.336Z,5.35
2023-01-12T19:34:46.738Z,5.41
2023-01-12T19:40:00.685Z,5.49
2023-01-12T19:45:08.648Z,5.56
2023-01-12T19:50:13.119Z,5.58
2023-01-12T19:55:14.979Z,5.59
2023-01-12T20:00:17.594Z,5.60
2023-01-12T20:05:22.802Z,5.63
2023-01-12T20:10:25.839Z,5.68
2023-01-12T20:15:28.138Z,5.66
2023-01-12T20:20:31.065Z,5.67
2023-01-12T20:25:33.063Z,5.69
2023-01-12T20:30:38.838Z,5.70
2023-01-12T20:35:45.955Z,5.68
2023-01-12T20:40:47.735Z,5.65
2023-01-12T20:45:50.611Z,5.66
2023-01-12T20:50:52.735Z,5.72
2023-01-12T20:55:54.484Z,5.88
2023-01-12T21:00:56.463Z,6.01
2023-01-12T21:06:00.170Z,6.14
2023-01-12T21:11:01.921Z,6.22
2023-01-12T21:16:07.024Z,6.26
2023-01-12T21:21:09.161Z,6.27
2023-01-12T21:26:11.204Z,6.02
2023-01-12T21:31:13.583Z,6.30
2023-01-12T21:36:17.822Z,6.28
2023-01-12T21:41:21.580Z,6.23
2023-01-12T21:46:23.495Z,6.16
2023-01-12T21:51:25.186Z,6.06
2023-01-12T21:56:27.005Z,5.96
2023-01-12T22:01:28.836Z,5.83
2023-01-12T22:06:31.208Z,5.73
2023-01-12T22:11:32.936Z,5.65
2023-01-12T22:16:35.513Z,5.62
2023-01-12T22:21:37.320Z,5.59
2023-01-12T22:26:38.994Z,5.52
2023-01-12T22:31:42.184Z,5.48
2023-01-12T22:36:43.995Z,5.51
2023-01-12T22:41:47.371Z,5.54
2023-01-12T22:46:49.106Z,5.37
2023-01-12T22:51:50.828Z,5.53
2023-01-12T22:56:52.662Z,5.54
2023-01-12T23:01:54.603Z,5.58
2023-01-12T23:06:56.291Z,5.63
2023-01-12T23:11:58.088Z,5.73
2023-01-12T23:16:59.923Z,5.82
2023-01-12T23:22:01.684Z,5.86
2023-01-12T23:27:04.723Z,5.93
2023-01-12T23:32:06.549Z,5.99
2023-01-12T23:37:08.320Z,6.06
2023-01-12T23:42:10.040Z,6.17
2023-01-12T23:47:12.929Z,6.25
2023-01-12T23:52:17.042Z,6.29
2023-01-12T23:57:18.826Z,6.32
